createdAt,value
2022-09-21T00:01:08.064Z,15.33
2022-09-21T00:03:58.380Z,8.40
2022-09-21T00:06:45.929Z,12.13
2022-09-21T00:09:33.020Z,11.73
2022-09-21T00:12:20.389Z,8.67
2022-09-21T00:15:08.472Z,6.17
2022-09-21T00:17:55.811Z,10.67
2022-09-21T00:20:44.500Z,10.37
2022-09-21T00:23:31.129Z,9.57
2022-09-21T00:26:19.680Z,9.53
2022-09-21T00:29:06.862Z,7.53
2022-09-21T00:31:53.564Z,8.33
2022-09-21T00:34:40.510Z,8.03
2022-09-21T00:37:28.955Z,7.33
2022-09-21T00:40:16.182Z,11.00
2022-09-21T00:43:16.534Z,9.13
2022-09-21T00:46:05.389Z,8.57
2022-09-21T00:48:52.496Z,19.93
2022-09-21T00:51:39.726Z,8.03
2022-09-21T00:54:32.572Z,10.53
2022-09-21T00:57:21.869Z,25.47
2022-09-21T01:00:11.854Z,14.77
2022-09-21T01:03:01.426Z,30.97
2022-09-21T01:05:48.978Z,14.27
2022-09-21T01:08:37.720Z,21.73
2022-09-21T01:11:32.194Z,9.47
2022-09-21T01:14:46.036Z,6.93
2022-09-21T01:17:40.856Z,8.33
2022-09-21T01:21:02.993Z,11.50
2022-09-21T01:24:22.284Z,12.00
2022-09-21T01:27:32.355Z,10.27
2022-09-21T01:30:22.351Z,9.87
2022-09-21T01:33:16.191Z,12.33
2022-09-21T01:36:09.133Z,9.07
2022-09-21T01:38:59.763Z,9.63
2022-09-21T01:41:48.011Z,8.43
2022-09-21T01:44:37.061Z,7.13
2022-09-21T01:47:26.236Z,8.33
2022-09-21T01:50:14.797Z,7.23
2022-09-21T01:53:06.379Z,7.70
2022-09-21T01:55:56.118Z,8.70
2022-09-21T01:58:48.386Z,6.37
2022-09-21T02:01:38.989Z,12.00
2022-09-21T02:04:27.455Z,13.93
2022-09-21T02:07:14.271Z,10.90
2022-09-21T02:10:03.002Z,6.77
2022-09-21T02:12:51.728Z,7.97
2022-09-21T02:15:51.835Z,10.00
2022-09-21T02:18:47.326Z,11.30
2022-09-21T02:21:46.675Z,6.60
2022-09-21T02:24:42.146Z,9.47
2022-09-21T02:27:35.637Z,8.87
2022-09-21T02:30:24.771Z,7.67
2022-09-21T02:33:17.773Z,8.63
2022-09-21T02:36:11.760Z,6.23
2022-09-21T02:39:07.225Z,9.80
2022-09-21T02:42:02.973Z,9.03
2022-09-21T02:44:56.828Z,18.17
2022-09-21T02:47:49.370Z,6.37
2022-09-21T02:50:41.722Z,9.17
2022-09-21T02:53:32.796Z,7.67
2022-09-21T02:56:21.502Z,6.80
2022-09-21T02:59:09.014Z,7.40
2022-09-21T03:01:57.362Z,10.70
2022-09-21T03:04:48.115Z,7.97
2022-09-21T03:07:35.149Z,7.87
2022-09-21T03:10:21.998Z,10.03
2022-09-21T03:13:10.549Z,7.83
2022-09-21T03:16:01.689Z,9.07
2022-09-21T03:18:49.332Z,7.50
2022-09-21T03:21:39.169Z,11.10
2022-09-21T03:24:45.618Z,6.37
2022-09-21T03:27:32.570Z,9.23
2022-09-21T03:30:21.079Z,13.17
2022-09-21T03:33:08.281Z,8.53
2022-09-21T03:35:55.209Z,7.43
2022-09-21T03:38:42.644Z,13.70
2022-09-21T03:41:29.193Z,8.23
2022-09-21T03:44:16.370Z,10.00
2022-09-21T03:47:06.642Z,11.07
2022-09-21T03:49:54.169Z,10.67
2022-09-21T03:52:41.090Z,14.43
2022-09-21T03:55:29.762Z,10.00
2022-09-21T03:58:16.955Z,8.60
2022-09-21T04:01:04.389Z,9.10
2022-09-21T04:03:52.500Z,13.03
2022-09-21T04:06:39.138Z,12.20
2022-09-21T04:09:25.657Z,7.73
2022-09-21T04:12:12.916Z,9.33
2022-09-21T04:14:59.683Z,11.83
2022-09-21T04:17:46.755Z,15.00
2022-09-21T04:20:35.313Z,8.20
2022-09-21T04:23:22.967Z,8.47
2022-09-21T04:26:20.871Z,11.87
2022-09-21T04:29:07.936Z,12.40
2022-09-21T04:31:54.908Z,10.20
2022-09-21T04:34:41.907Z,15.30
2022-09-21T04:37:29.709Z,19.63
2022-09-21T04:40:17.110Z,13.37
2022-09-21T04:43:04.603Z,12.30
2022-09-21T04:45:51.637Z,15.73
2022-09-21T04:48:39.524Z,18.03
2022-09-21T04:51:26.312Z,9.10
2022-09-21T04:54:14.880Z,8.93
2022-09-21T04:57:02.031Z,10.93
2022-09-21T04:59:48.655Z,7.63
2022-09-21T05:02:35.544Z,10.27
2022-09-21T05:05:22.629Z,20.00
2022-09-21T05:08:09.503Z,9.93
2022-09-21T05:10:56.511Z,12.53
2022-09-21T05:13:43.271Z,10.67
2022-09-21T05:16:30.364Z,11.00
2022-09-21T05:19:17.392Z,14.03
2022-09-21T05:22:06.471Z,13.23
2022-09-21T05:24:53.539Z,9.67
2022-09-21T05:27:41.543Z,11.80
2022-09-21T05:30:28.898Z,11.87
2022-09-21T05:33:20.121Z,12.80
2022-09-21T05:36:22.968Z,10.97
2022-09-21T05:39:09.972Z,13.17
2022-09-21T05:41:57.610Z,15.37
2022-09-21T05:44:45.948Z,16.67
2022-09-21T05:47:40.789Z,15.30
2022-09-21T05:50:38.270Z,10.77
2022-09-21T05:53:49.410Z,12.67
2022-09-21T05:56:48.420Z,14.20
2022-09-21T05:59:57.968Z,15.43
2022-09-21T06:03:05.370Z,11.90
2022-09-21T06:05:52.620Z,14.40
2022-09-21T06:08:40.962Z,14.23
2022-09-21T06:11:27.773Z,14.07
2022-09-21T06:14:14.647Z,13.10
2022-09-21T06:17:04.186Z,14.13
2022-09-21T06:19:50.987Z,10.90
2022-09-21T06:22:39.635Z,24.50
2022-09-21T06:25:26.912Z,12.93
2022-09-21T06:28:14.266Z,15.53
2022-09-21T06:31:01.610Z,14.30
2022-09-21T06:33:49.859Z,18.70
2022-09-21T06:36:37.172Z,23.10
2022-09-21T06:39:24.252Z,24.23
2022-09-21T06:42:11.359Z,17.80
2022-09-21T06:44:57.760Z,21.57
2022-09-21T06:47:48.191Z,14.20
2022-09-21T06:50:37.081Z,19.13
2022-09-21T06:53:23.851Z,16.60
2022-09-21T06:56:13.587Z,17.20
2022-09-21T06:59:01.424Z,14.20
2022-09-21T07:01:48.693Z,20.93
2022-09-21T07:04:35.727Z,15.13
2022-09-21T07:07:23.698Z,15.10
2022-09-21T07:10:15.736Z,15.60
2022-09-21T07:13:05.994Z,14.53
2022-09-21T07:15:53.501Z,14.27
2022-09-21T07:18:43.906Z,17.20
2022-09-21T07:21:31.115Z,14.40
2022-09-21T07:24:19.100Z,15.77
2022-09-21T07:27:06.480Z,15.23
2022-09-21T07:29:53.608Z,17.33
2022-09-21T07:32:40.357Z,13.37
2022-09-21T07:35:27.274Z,11.47
2022-09-21T07:38:14.279Z,15.73
2022-09-21T07:41:04.142Z,12.43
2022-09-21T07:43:51.321Z,10.83
2022-09-21T07:46:41.302Z,10.30
2022-09-21T07:49:32.764Z,12.77
2022-09-21T07:52:19.963Z,10.83
2022-09-21T07:55:08.217Z,8.53
2022-09-21T07:58:14.759Z,14.60
2022-09-21T08:01:06.412Z,11.43
2022-09-21T08:03:54.925Z,32.17
2022-09-21T08:06:42.330Z,15.90
2022-09-21T08:09:29.404Z,8.87
2022-09-21T08:12:18.563Z,11.07
2022-09-21T08:15:16.495Z,13.40
2022-09-21T08:18:12.233Z,12.50
2022-09-21T08:21:00.262Z,12.73
2022-09-21T08:23:48.574Z,10.40
2022-09-21T08:26:35.147Z,19.73
2022-09-21T08:29:22.318Z,19.03
2022-09-21T08:32:19.038Z,10.37
2022-09-21T08:35:19.043Z,11.67
2022-09-21T08:38:06.309Z,9.37
2022-09-21T08:40:55.201Z,8.60
2022-09-21T08:43:43.881Z,6.40
2022-09-21T08:46:35.834Z,10.77
2022-09-21T08:49:27.790Z,6.23
2022-09-21T08:52:17.582Z,10.83
2022-09-21T08:55:15.417Z,11.93
2022-09-21T08:58:04.213Z,9.43
2022-09-21T09:01:02.402Z,6.87
2022-09-21T09:04:03.636Z,7.27
2022-09-21T09:07:04.589Z,9.17
2022-09-21T09:10:04.514Z,5.70
2022-09-21T09:13:05.025Z,4.90
2022-09-21T09:16:03.136Z,6.20
2022-09-21T09:18:54.317Z,4.30
2022-09-21T09:21:43.523Z,4.83
2022-09-21T09:24:38.085Z,5.43
2022-09-21T09:27:29.584Z,3.70
2022-09-21T09:30:20.051Z,8.17
2022-09-21T09:33:14.605Z,8.63
2022-09-21T09:36:04.413Z,5.30
2022-09-21T09:38:57.275Z,3.40
2022-09-21T09:42:08.176Z,4.80
2022-09-21T09:45:14.191Z,3.50
2022-09-21T09:48:15.985Z,5.27
2022-09-21T09:51:03.298Z,3.30
2022-09-21T09:53:50.503Z,2.00
2022-09-21T09:56:39.122Z,6.23
2022-09-21T09:59:33.428Z,2.23
2022-09-21T10:02:21.893Z,2.50
2022-09-21T10:05:22.144Z,3.90
2022-09-21T10:08:29.836Z,5.13
2022-09-21T10:11:17.724Z,2.83
2022-09-21T10:14:15.108Z,2.00
2022-09-21T10:17:08.373Z,2.60
2022-09-21T10:20:01.415Z,6.87
2022-09-21T10:22:54.181Z,3.43
2022-09-21T10:25:43.399Z,3.57
2022-09-21T10:28:31.226Z,2.50
2022-09-21T10:31:25.115Z,2.20
2022-09-21T10:34:15.903Z,1.50
2022-09-21T10:37:27.296Z,3.07
2022-09-21T10:40:30.817Z,1.03
2022-09-21T10:43:25.766Z,2.43
2022-09-21T10:46:12.717Z,2.13
2022-09-21T10:48:59.728Z,1.93
2022-09-21T10:51:50.337Z,1.30
2022-09-21T10:54:37.124Z,0.83
2022-09-21T10:57:26.624Z,0.82
2022-09-21T11:00:35.257Z,0.73
2022-09-21T11:03:49.633Z,0.77
2022-09-21T11:06:41.615Z,1.23
2022-09-21T11:09:34.260Z,1.20
2022-09-21T11:12:36.789Z,1.80
2022-09-21T11:15:34.837Z,2.33
2022-09-21T11:18:27.257Z,5.27
2022-09-21T11:21:20.104Z,1.50
2022-09-21T11:24:17.824Z,1.27
2022-09-21T11:27:09.203Z,3.50
2022-09-21T11:30:03.952Z,1.70
2022-09-21T11:33:03.696Z,1.10
2022-09-21T11:35:58.979Z,1.80
2022-09-21T11:38:54.400Z,1.80
2022-09-21T11:41:51.983Z,2.00
2022-09-21T11:44:50.653Z,2.77
2022-09-21T11:47:50.960Z,3.93
2022-09-21T11:54:08.337Z,1.90
2022-09-21T11:57:01.148Z,1.00
2022-09-21T12:00:09.843Z,0.87
2022-09-21T12:03:32.785Z,1.40
2022-09-21T12:06:28.480Z,1.35
2022-09-21T12:09:44.008Z,0.97
2022-09-21T12:12:35.776Z,1.00
2022-09-21T12:15:32.248Z,1.50
2022-09-21T12:18:25.821Z,2.40
2022-09-21T12:21:20.701Z,1.13
2022-09-21T12:24:16.044Z,0.90
2022-09-21T12:27:08.241Z,1.10
2022-09-21T12:29:59.487Z,1.00
2022-09-21T12:32:54.577Z,0.60
2022-09-21T12:35:46.642Z,2.43
2022-09-21T12:38:36.841Z,1.20
2022-09-21T12:41:31.411Z,1.75
2022-09-21T12:44:24.007Z,0.82
2022-09-21T12:47:16.216Z,0.80
2022-09-21T12:50:14.605Z,5.53
2022-09-21T12:53:02.400Z,1.23
2022-09-21T12:55:56.331Z,1.53
2022-09-21T12:58:50.793Z,1.03
2022-09-21T13:01:39.323Z,1.50
2022-09-21T13:04:44.484Z,0.70
2022-09-21T13:07:50.009Z,0.90
2022-09-21T13:10:44.702Z,1.30
2022-09-21T13:13:35.798Z,3.10
2022-09-21T13:16:27.628Z,1.27
2022-09-21T13:19:22.641Z,2.33
2022-09-21T13:22:19.778Z,0.67
2022-09-21T13:25:19.983Z,1.80
2022-09-21T13:28:19.683Z,0.50
2022-09-21T13:31:42.118Z,0.70
2022-09-21T13:34:37.215Z,0.77
2022-09-21T13:37:29.104Z,0.63
2022-09-21T13:40:50.177Z,1.70
2022-09-21T13:44:04.986Z,1.50
2022-09-21T13:46:57.895Z,0.60
2022-09-21T13:49:59.718Z,2.73
2022-09-21T13:52:52.105Z,0.87
2022-09-21T13:55:40.854Z,2.87
2022-09-21T13:58:34.814Z,0.87
2022-09-21T14:01:45.884Z,2.10
2022-09-21T14:04:31.695Z,0.97
2022-09-21T14:07:19.122Z,1.77
2022-09-21T14:10:09.040Z,1.10
2022-09-21T14:12:56.101Z,1.93
2022-09-21T14:15:44.459Z,0.70
2022-09-21T14:18:40.715Z,0.73
2022-09-21T14:21:27.651Z,0.60
2022-09-21T14:24:21.927Z,1.27
2022-09-21T14:27:16.625Z,2.33
2022-09-21T14:30:07.292Z,1.23
2022-09-21T14:33:03.212Z,15.07
2022-09-21T14:35:50.570Z,4.90
2022-09-21T14:38:41.117Z,1.23
2022-09-21T14:41:31.282Z,0.90
2022-09-21T14:44:20.297Z,2.57
2022-09-21T14:47:20.819Z,1.33
2022-09-21T14:50:23.224Z,1.47
2022-09-21T14:53:29.274Z,2.87
2022-09-21T14:56:26.616Z,4.13
2022-09-21T14:59:21.084Z,3.00
2022-09-21T15:02:15.392Z,2.03
2022-09-21T15:05:09.221Z,0.87
2022-09-21T15:08:28.487Z,1.07
2022-09-21T15:11:23.204Z,5.50
2022-09-21T15:14:21.012Z,2.73
2022-09-21T15:17:24.104Z,0.90
2022-09-21T15:20:19.027Z,1.00
2022-09-21T15:23:19.318Z,0.97
2022-09-21T15:26:11.084Z,1.70
2022-09-21T15:29:15.692Z,0.73
2022-09-21T15:32:03.015Z,3.20
2022-09-21T15:34:52.919Z,1.33
2022-09-21T15:37:40.441Z,1.43
2022-09-21T15:40:29.982Z,1.03
2022-09-21T15:43:20.835Z,1.57
2022-09-21T15:46:11.393Z,1.73
2022-09-21T15:49:01.606Z,1.37
2022-09-21T15:51:53.263Z,4.90
2022-09-21T15:54:44.703Z,15.13
2022-09-21T15:57:39.440Z,1.47
2022-09-21T16:00:27.517Z,1.40
2022-09-21T16:03:22.017Z,3.33
2022-09-21T16:06:25.210Z,1.60
2022-09-21T16:09:40.684Z,0.90
2022-09-21T16:12:43.454Z,0.93
2022-09-21T16:16:00.739Z,0.80
2022-09-21T16:18:49.611Z,0.87
2022-09-21T16:21:40.333Z,2.77
2022-09-21T16:24:30.419Z,1.10
2022-09-21T16:27:18.264Z,1.20
2022-09-21T16:30:07.153Z,2.77
2022-09-21T16:35:58.751Z,1.10
2022-09-21T16:38:47.060Z,1.23
2022-09-21T16:41:36.954Z,0.97
2022-09-21T16:44:26.567Z,1.33
2022-09-21T16:47:22.692Z,1.17
2022-09-21T16:50:18.974Z,0.80
2022-09-21T16:53:07.765Z,1.03
2022-09-21T16:55:54.881Z,1.67
2022-09-21T16:58:45.023Z,1.40
2022-09-21T17:01:32.189Z,1.53
2022-09-21T17:04:22.219Z,4.20
2022-09-21T17:07:12.027Z,1.10
2022-09-21T17:09:59.276Z,2.10
2022-09-21T17:12:46.331Z,1.23
2022-09-21T17:15:35.768Z,1.20
2022-09-21T17:18:23.195Z,3.53
2022-09-21T17:21:11.442Z,3.97
2022-09-21T17:23:58.942Z,2.80
2022-09-21T17:26:46.011Z,2.50
2022-09-21T17:29:39.808Z,2.03
2022-09-21T17:32:26.624Z,2.83
2022-09-21T17:35:18.489Z,4.03
2022-09-21T17:38:09.138Z,2.73
2022-09-21T17:40:59.659Z,2.17
2022-09-21T17:43:56.156Z,3.80
2022-09-21T17:46:51.871Z,2.80
2022-09-21T17:49:39.060Z,3.13
2022-09-21T17:52:43.859Z,1.20
2022-09-21T17:55:32.374Z,1.50
2022-09-21T17:58:39.327Z,3.20
2022-09-21T18:01:33.688Z,2.43
2022-09-21T18:04:20.941Z,6.27
2022-09-21T18:07:08.685Z,2.00
2022-09-21T18:09:56.106Z,1.77
2022-09-21T18:13:00.046Z,2.30
2022-09-21T18:15:58.939Z,4.10
2022-09-21T18:18:52.262Z,2.57
2022-09-21T18:21:44.331Z,2.27
2022-09-21T18:24:32.575Z,1.60
2022-09-21T18:27:19.976Z,3.13
2022-09-21T18:30:12.064Z,3.63
2022-09-21T18:33:13.373Z,2.30
2022-09-21T18:36:18.316Z,2.17
2022-09-21T18:39:11.586Z,2.53
2022-09-21T18:42:25.617Z,2.67
2022-09-21T18:45:15.829Z,4.17
2022-09-21T18:48:13.190Z,4.33
2022-09-21T18:51:11.139Z,4.43
2022-09-21T18:54:00.098Z,2.77
2022-09-21T18:56:47.601Z,8.13
2022-09-21T18:59:35.855Z,3.43
2022-09-21T19:02:24.725Z,6.20
2022-09-21T19:05:13.980Z,4.67
2022-09-21T19:08:06.048Z,4.20
2022-09-21T19:10:58.092Z,3.90
2022-09-21T19:13:53.785Z,7.00
2022-09-21T19:16:44.219Z,4.47
2022-09-21T19:19:39.806Z,7.57
2022-09-21T19:22:37.253Z,5.17
2022-09-21T19:25:28.119Z,4.50
2022-09-21T19:28:34.325Z,3.60
2022-09-21T19:31:21.602Z,4.70
2022-09-21T19:34:13.653Z,4.97
2022-09-21T19:37:07.015Z,6.10
2022-09-21T19:39:55.267Z,4.37
2022-09-21T19:42:50.402Z,6.90
2022-09-21T19:45:46.120Z,4.03
2022-09-21T19:48:38.356Z,6.57
2022-09-21T19:51:33.739Z,5.33
2022-09-21T19:54:41.542Z,6.60
2022-09-21T19:57:46.842Z,10.87
2022-09-21T20:00:34.114Z,4.27
2022-09-21T20:03:26.031Z,4.53
2022-09-21T20:06:20.683Z,7.97
2022-09-21T20:09:10.217Z,5.50
2022-09-21T20:12:03.490Z,5.73
2022-09-21T20:14:52.324Z,5.17
2022-09-21T20:17:45.560Z,5.67
2022-09-21T20:20:32.380Z,4.97
2022-09-21T20:23:19.787Z,4.67
2022-09-21T20:26:08.064Z,10.10
2022-09-21T20:28:57.111Z,9.70
2022-09-21T20:31:44.551Z,4.97
2022-09-21T20:34:31.964Z,5.67
2022-09-21T20:37:19.315Z,6.67
2022-09-21T20:40:06.540Z,13.20
2022-09-21T20:42:56.921Z,5.57
2022-09-21T20:45:50.344Z,6.30
2022-09-21T20:48:37.698Z,8.67
2022-09-21T20:51:24.446Z,9.93
2022-09-21T20:54:11.403Z,8.77
2022-09-21T20:56:58.305Z,7.30
2022-09-21T20:59:45.553Z,9.87
2022-09-21T21:02:34.128Z,7.23
2022-09-21T21:05:22.288Z,6.43
2022-09-21T21:08:09.299Z,9.70
2022-09-21T21:10:57.001Z,5.73
2022-09-21T21:13:43.809Z,6.37
2022-09-21T21:16:30.958Z,6.47
2022-09-21T21:19:19.271Z,4.43
2022-09-21T21:22:07.391Z,7.73
2022-09-21T21:24:54.166Z,4.30
2022-09-21T21:27:41.327Z,6.57
2022-09-21T21:30:28.864Z,6.90
2022-09-21T21:33:16.098Z,4.40
2022-09-21T21:36:08.116Z,6.23
2022-09-21T21:38:55.127Z,5.93
2022-09-21T21:41:43.418Z,4.80
2022-09-21T21:44:30.702Z,12.27
2022-09-21T21:50:24.711Z,3.80
2022-09-21T21:53:12.923Z,8.17
2022-09-21T21:56:07.187Z,10.60
2022-09-21T21:58:55.267Z,9.80
2022-09-21T22:01:42.854Z,6.63
2022-09-21T22:04:29.959Z,11.27
2022-09-21T22:07:16.591Z,4.77
2022-09-21T22:10:06.689Z,10.07
2022-09-21T22:12:58.135Z,8.67
2022-09-21T22:15:45.119Z,7.90
2022-09-21T22:18:32.338Z,9.60
2022-09-21T22:21:22.133Z,8.33
2022-09-21T22:24:10.304Z,4.97
2022-09-21T22:26:58.101Z,8.07
2022-09-21T22:29:45.237Z,7.07
2022-09-21T22:32:32.219Z,4.97
2022-09-21T22:35:19.339Z,4.83
2022-09-21T22:38:11.161Z,12.13
2022-09-21T22:40:57.864Z,6.83
2022-09-21T22:43:46.540Z,7.27
2022-09-21T22:46:34.077Z,5.00
2022-09-21T22:49:20.604Z,4.63
2022-09-21T22:52:07.500Z,6.33
2022-09-21T22:54:54.431Z,9.07
2022-09-21T22:57:41.542Z,6.97
2022-09-21T23:00:29.537Z,5.30
2022-09-21T23:03:16.927Z,4.93
2022-09-21T23:06:04.728Z,7.47
2022-09-21T23:08:52.762Z,13.63
2022-09-21T23:11:43.016Z,4.90
2022-09-21T23:14:30.281Z,4.97
2022-09-21T23:17:18.452Z,9.23
2022-09-21T23:20:05.681Z,8.43
2022-09-21T23:22:52.771Z,5.17
2022-09-21T23:25:40.010Z,4.87
2022-09-21T23:28:26.953Z,6.03
2022-09-21T23:31:15.728Z,4.50
2022-09-21T23:34:08.486Z,6.60
2022-09-21T23:36:55.280Z,8.43
2022-09-21T23:39:42.232Z,4.23
2022-09-21T23:42:29.397Z,8.03
2022-09-21T23:45:16.397Z,14.87
2022-09-21T23:48:03.444Z,4.27
2022-09-21T23:50:51.590Z,5.07
2022-09-21T23:53:38.604Z,6.33
2022-09-21T23:56:25.373Z,7.13
2022-09-21T23:59:12.432Z,7.60
